Terminal Aerodrome Forecast
Issued by NWS Cleveland, OH

Home | Current Version | Previous Version | Graphics & Text | Print | Product List | Glossary On
Versions: 1 2 3 4 5 6 7 8 9 10 11 12 13 14
000
FTUS41 KCLE 052339
TAFCAK
TAF
KCAK 052339Z 0600/0624 VRB03KT P6SM SCT025 BKN150
      TEMPO 0600/0602 OVC025
     FM060200 10005KT P6SM BKN100
     FM061400 08008KT 5SM -RA OVC020
     FM061600 10010KT 3SM -RA BR OVC008
     FM061900 12012G20KT 2SM -RA BR OVC004=

USA.gov is the U.S. government's official web portal to all federal, state and local government web resources and services.